createdAt,value
2023-01-04T01:08:43.518Z,0.80
2023-01-04T01:11:12.593Z,0.80
2023-01-04T01:13:40.600Z,1.13
2023-01-04T01:16:09.612Z,0.98
2023-01-04T01:18:38.171Z,0.85
2023-01-04T01:21:06.336Z,0.80
2023-01-04T01:23:34.054Z,1.00
2023-01-04T01:26:02.085Z,0.90
2023-01-04T01:28:31.334Z,0.90
2023-01-04T01:31:02.402Z,0.85
2023-01-04T01:33:34.496Z,0.80
2023-01-04T01:36:02.468Z,1.00
2023-01-04T01:38:30.155Z,1.00
2023-01-04T01:40:57.878Z,0.82
2023-01-04T01:43:48.555Z,0.85
2023-01-04T01:46:16.355Z,1.05
2023-01-04T01:48:44.026Z,0.98
2023-01-04T01:51:11.713Z,0.73
2023-01-04T01:53:40.213Z,1.10
2023-01-04T01:56:08.607Z,0.98
2023-01-04T01:58:38.797Z,1.10
2023-01-04T02:01:07.898Z,0.73
2023-01-04T02:03:37.264Z,0.80
2023-01-04T02:06:06.385Z,1.17
2023-01-04T02:08:34.054Z,0.90
2023-01-04T02:11:01.696Z,1.10
2023-01-04T02:13:50.579Z,0.95
2023-01-04T02:16:23.230Z,1.08
2023-01-04T02:18:53.390Z,0.95
2023-01-04T02:21:23.116Z,1.10
2023-01-04T02:24:13.242Z,0.80
2023-01-04T02:27:15.373Z,1.05
2023-01-04T02:30:19.877Z,1.00
2023-01-04T02:32:57.765Z,0.82
2023-01-04T02:35:27.062Z,1.17
2023-01-04T02:37:59.111Z,0.90
2023-01-04T02:40:29.838Z,0.80
2023-01-04T02:43:16.718Z,1.00
2023-01-04T02:45:49.571Z,0.80
2023-01-04T02:48:36.165Z,1.00
2023-01-04T02:51:03.848Z,0.98
2023-01-04T02:53:34.370Z,1.10
2023-01-04T02:56:09.742Z,1.00
2023-01-04T02:58:46.301Z,1.00
2023-01-04T03:01:33.203Z,0.70
2023-01-04T03:04:26.978Z,0.82
2023-01-04T03:06:58.518Z,0.73
2023-01-04T03:09:29.409Z,0.80
2023-01-04T03:12:16.808Z,0.88
2023-01-04T03:14:46.352Z,0.80
2023-01-04T03:17:14.693Z,0.93
2023-01-04T03:19:54.596Z,1.00
2023-01-04T03:22:43.400Z,0.90
2023-01-04T03:25:28.856Z,0.80
2023-01-04T03:28:14.445Z,1.35
2023-01-04T03:31:04.691Z,1.10
2023-01-04T03:33:50.348Z,0.70
2023-01-04T03:36:25.849Z,1.05
2023-01-04T03:39:13.455Z,0.85
2023-01-04T03:42:03.372Z,0.80
2023-01-04T03:44:50.617Z,0.80
2023-01-04T03:47:37.223Z,0.80
2023-01-04T03:50:07.628Z,0.93
2023-01-04T03:52:36.635Z,0.82
2023-01-04T03:55:04.806Z,0.90
2023-01-04T03:57:32.538Z,0.70
2023-01-04T04:00:01.992Z,0.75
2023-01-04T04:02:32.964Z,1.30
2023-01-04T04:05:18.289Z,1.13
2023-01-04T04:08:05.037Z,1.00
2023-01-04T04:10:32.701Z,1.00
2023-01-04T04:13:00.408Z,1.17
2023-01-04T04:15:28.109Z,0.68
2023-01-04T04:17:55.791Z,0.70
2023-01-04T04:20:23.440Z,0.80
2023-01-04T04:22:52.412Z,1.15
2023-01-04T04:25:20.084Z,0.80
2023-01-04T04:27:47.740Z,1.20
2023-01-04T04:30:15.425Z,1.48
2023-01-04T04:32:43.119Z,0.90
2023-01-04T04:35:10.894Z,1.00
2023-01-04T04:37:38.584Z,0.93
2023-01-04T04:40:28.925Z,0.60
2023-01-04T04:42:55.961Z,0.80
2023-01-04T04:45:23.632Z,0.77
2023-01-04T04:47:51.303Z,0.80
2023-01-04T04:50:18.985Z,0.90
2023-01-04T04:52:51.002Z,0.90
2023-01-04T04:55:23.188Z,1.13
2023-01-04T04:57:50.861Z,0.95
2023-01-04T05:00:18.711Z,0.80
2023-01-04T05:02:46.497Z,0.75
2023-01-04T05:05:14.303Z,0.90
2023-01-04T05:07:41.975Z,0.80
2023-01-04T05:10:10.081Z,0.60
2023-01-04T05:12:58.073Z,1.13
2023-01-04T05:15:25.956Z,0.73
2023-01-04T05:17:53.656Z,0.90
2023-01-04T05:20:21.389Z,0.85
2023-01-04T05:22:49.124Z,0.60
2023-01-04T05:25:17.002Z,0.93
2023-01-04T05:27:46.097Z,0.70
2023-01-04T05:30:31.713Z,0.90
2023-01-04T05:32:59.393Z,0.80
2023-01-04T05:35:27.102Z,0.70
2023-01-04T05:37:54.777Z,1.42
2023-01-04T05:40:22.485Z,0.70
2023-01-04T05:42:51.494Z,0.70
2023-01-04T05:45:19.421Z,0.90
2023-01-04T05:47:47.062Z,0.70
2023-01-04T05:50:14.707Z,0.60
2023-01-04T05:52:42.428Z,0.90
2023-01-04T05:55:10.443Z,0.88
2023-01-04T05:57:38.165Z,0.95
2023-01-04T06:00:08.493Z,1.02
2023-01-04T06:02:42.173Z,0.68
2023-01-04T06:05:10.542Z,0.73
2023-01-04T06:07:38.448Z,0.63
2023-01-04T06:10:07.512Z,1.15
2023-01-04T06:12:35.191Z,0.75
2023-01-04T06:15:02.889Z,0.75
2023-01-04T06:17:31.894Z,0.70
2023-01-04T06:19:59.555Z,0.75
2023-01-04T06:22:27.978Z,0.73
2023-01-04T06:24:55.667Z,1.20
2023-01-04T06:27:23.305Z,1.00
2023-01-04T06:29:51.062Z,0.98
2023-01-04T06:32:18.711Z,0.80
2023-01-04T06:34:47.725Z,0.80
2023-01-04T06:37:15.424Z,0.52
2023-01-04T06:39:43.074Z,1.05
2023-01-04T06:42:31.271Z,0.82
2023-01-04T06:44:58.988Z,0.93
2023-01-04T06:47:26.661Z,0.80
2023-01-04T06:49:55.637Z,0.93
2023-01-04T06:52:23.312Z,0.93
2023-01-04T06:54:50.994Z,0.90
2023-01-04T06:57:18.679Z,0.88
2023-01-04T06:59:46.315Z,0.75
2023-01-04T07:02:15.324Z,0.73
2023-01-04T07:04:43.344Z,1.05
2023-01-04T07:07:12.406Z,0.75
2023-01-04T07:09:40.114Z,0.90
2023-01-04T07:12:07.876Z,0.80
2023-01-04T12:26:55.266Z,0.75
2023-01-04T12:29:48.193Z,1.50
2023-01-04T12:32:46.814Z,3.03
2023-01-04T12:36:06.596Z,2.28
2023-01-04T12:39:29.419Z,5.97
2023-01-04T12:51:32.743Z,4.10
2023-01-04T12:54:08.968Z,5.53
2023-01-04T12:57:12.421Z,3.67
2023-01-04T13:00:17.357Z,6.50
2023-01-04T13:04:09.024Z,6.57
2023-01-04T13:06:45.796Z,6.95
2023-01-04T13:09:28.771Z,4.35
2023-01-04T13:13:01.416Z,6.57
2023-01-04T13:27:30.732Z,10.98
2023-01-04T13:30:41.337Z,8.57
2023-01-04T13:33:28.805Z,9.98
2023-01-04T13:36:04.568Z,9.82
2023-01-04T13:38:37.861Z,11.13
2023-01-04T13:41:06.760Z,7.72
2023-01-04T13:44:00.525Z,8.07
2023-01-04T13:46:35.413Z,10.65
2023-01-04T13:49:26.291Z,9.65
2023-01-04T13:52:11.380Z,9.55
2023-01-04T13:57:58.634Z,7.18
2023-01-04T14:00:45.743Z,8.52
2023-01-04T14:03:23.989Z,12.70
2023-01-04T14:05:58.755Z,10.50
2023-01-04T14:08:40.913Z,8.35
2023-01-04T14:11:38.227Z,6.97
2023-01-04T14:14:17.182Z,11.30
2023-01-04T14:16:54.817Z,4.95
2023-01-04T14:19:43.741Z,7.22
2023-01-04T14:22:26.741Z,10.00
2023-01-04T14:25:09.544Z,7.10
2023-01-04T14:27:41.353Z,6.53
2023-01-04T14:30:38.229Z,5.10
2023-01-04T14:33:21.093Z,8.00
2023-01-04T14:36:05.415Z,7.18
2023-01-04T14:38:43.575Z,8.48
2023-01-04T14:41:17.032Z,7.70
2023-01-04T14:46:56.996Z,8.95
2023-01-04T14:49:27.123Z,6.03
2023-01-04T14:51:56.632Z,13.18
2023-01-04T14:54:25.765Z,9.10
2023-01-04T14:56:54.456Z,13.63
2023-01-04T14:59:24.866Z,11.90
2023-01-04T15:02:05.786Z,13.18
2023-01-04T15:05:04.356Z,14.75
2023-01-04T15:07:49.357Z,12.90
2023-01-04T15:10:26.901Z,14.82
2023-01-04T15:16:23.720Z,15.38
2023-01-04T15:18:59.156Z,10.90
2023-01-04T15:21:51.271Z,11.27
2023-01-04T15:24:43.119Z,7.35
2023-01-04T15:27:11.465Z,12.73
2023-01-04T15:29:41.718Z,11.75
2023-01-04T15:34:58.574Z,11.77
2023-01-04T15:37:30.592Z,8.38
2023-01-04T15:40:02.710Z,7.25
2023-01-04T15:42:49.130Z,19.40
2023-01-04T15:45:17.153Z,15.68
2023-01-04T15:47:47.188Z,7.55
2023-01-04T15:50:15.278Z,9.82
2023-01-04T15:52:43.290Z,12.30
2023-01-04T15:55:11.728Z,10.57
2023-01-04T15:57:43.734Z,10.80
2023-01-04T16:00:13.534Z,12.55
2023-01-04T16:02:41.936Z,11.57
2023-01-04T16:05:16.158Z,7.40
2023-01-04T16:07:44.090Z,15.20
2023-01-04T16:10:14.850Z,6.47
2023-01-04T16:12:42.829Z,12.45
2023-01-04T16:15:13.543Z,12.02
2023-01-04T16:17:42.425Z,11.52
2023-01-04T16:20:11.634Z,9.57
2023-01-04T16:22:47.287Z,8.45
2023-01-04T16:28:09.894Z,9.57
2023-01-04T16:30:38.047Z,6.88
2023-01-04T16:33:26.112Z,8.32
2023-01-04T16:36:00.213Z,12.75
2023-01-04T16:38:29.573Z,13.25
2023-01-04T16:41:04.444Z,17.48
2023-01-04T16:43:32.524Z,10.00
2023-01-04T16:46:19.142Z,12.55
2023-01-04T16:48:49.000Z,14.13
2023-01-04T16:51:35.389Z,10.75
2023-01-04T16:54:10.558Z,7.60
2023-01-04T16:57:09.813Z,9.10
2023-01-04T16:59:43.654Z,6.38
2023-01-04T17:02:12.754Z,9.52
2023-01-04T17:04:41.152Z,8.00
2023-01-04T17:07:18.193Z,10.32
2023-01-04T17:09:48.056Z,11.73
2023-01-04T17:15:41.260Z,11.05
2023-01-04T17:17:53.340Z,6.70
2023-01-04T17:20:24.093Z,12.52
2023-01-04T17:22:56.619Z,7.95
2023-01-04T17:25:51.140Z,11.27
2023-01-04T17:28:25.100Z,6.65
2023-01-04T17:31:38.279Z,6.97
2023-01-04T17:38:19.333Z,8.90
2023-01-04T17:40:51.618Z,6.55
2023-01-04T17:43:27.032Z,9.57
2023-01-04T17:45:56.961Z,9.55
2023-01-04T17:48:28.749Z,9.40
2023-01-04T17:51:26.166Z,10.52
2023-01-04T17:54:03.782Z,15.85
2023-01-04T17:56:40.333Z,6.45
2023-01-04T17:59:12.762Z,8.48
2023-01-04T18:01:41.674Z,7.80
2023-01-04T18:04:12.864Z,8.52
2023-01-04T18:06:41.067Z,9.30
2023-01-04T18:09:09.719Z,8.80
2023-01-04T18:11:37.733Z,10.57
2023-01-04T18:14:09.826Z,8.63
2023-01-04T18:16:57.692Z,8.05
2023-01-04T18:19:26.149Z,9.63
2023-01-04T18:21:54.057Z,9.88
2023-01-04T18:24:38.691Z,10.00
2023-01-04T18:27:25.033Z,7.50
2023-01-04T18:29:53.796Z,11.00
2023-01-04T18:32:23.117Z,9.05
2023-01-04T18:34:50.967Z,11.25
2023-01-04T18:37:19.499Z,9.38
2023-01-04T18:39:47.734Z,6.55
2023-01-04T18:42:15.546Z,6.95
2023-01-04T18:44:48.546Z,7.10
2023-01-04T18:47:18.048Z,9.35
2023-01-04T18:49:47.630Z,8.30
2023-01-04T18:52:15.753Z,9.25
2023-01-04T18:54:45.028Z,6.90
2023-01-04T18:57:13.312Z,7.18
2023-01-04T18:59:41.881Z,9.10
2023-01-04T19:02:11.858Z,7.90
2023-01-04T19:04:40.174Z,5.55
2023-01-04T19:07:09.794Z,9.85
2023-01-04T19:09:38.132Z,6.32
2023-01-04T19:12:06.637Z,5.88
2023-01-04T19:14:34.852Z,7.47
2023-01-04T19:17:03.091Z,6.53
2023-01-04T19:19:31.643Z,5.72
2023-01-04T19:22:00.030Z,9.00
2023-01-04T19:24:29.552Z,6.90
2023-01-04T19:27:02.594Z,4.20
2023-01-04T19:29:30.831Z,5.95
2023-01-04T19:31:58.692Z,5.50
2023-01-04T19:34:27.084Z,5.00
2023-01-04T19:36:55.210Z,5.03
2023-01-04T19:39:23.783Z,7.63
2023-01-04T19:41:53.369Z,3.90
2023-01-04T19:44:21.630Z,4.55
2023-01-04T19:46:49.558Z,5.00
2023-01-04T19:49:18.264Z,8.15
2023-01-04T19:51:47.131Z,4.65
2023-01-04T19:54:18.504Z,5.50
2023-01-04T19:56:52.722Z,5.32
2023-01-04T19:59:20.717Z,4.85
2023-01-04T20:01:49.059Z,4.40
2023-01-04T20:04:17.056Z,6.97
2023-01-04T20:06:44.987Z,5.03
2023-01-04T20:09:13.024Z,3.00
2023-01-04T20:11:41.221Z,5.15
2023-01-04T20:14:10.647Z,4.28
2023-01-04T20:16:40.264Z,5.55
2023-01-04T20:19:08.065Z,4.93
2023-01-04T20:21:35.900Z,5.00
2023-01-04T20:24:04.050Z,3.97
2023-01-04T20:26:32.294Z,4.13
2023-01-04T20:29:00.891Z,4.13
2023-01-04T20:31:30.559Z,4.20
2023-01-04T20:33:58.997Z,4.70
2023-01-04T20:36:29.229Z,3.95
2023-01-04T20:38:58.116Z,3.63
2023-01-04T20:41:26.866Z,3.67
2023-01-04T20:43:53.842Z,5.13
2023-01-04T20:46:23.103Z,4.32
2023-01-04T20:48:52.301Z,3.92
2023-01-04T20:51:21.599Z,4.10
2023-01-04T20:53:49.567Z,3.53
2023-01-04T20:56:18.738Z,4.22
2023-01-04T20:58:46.956Z,3.40
2023-01-04T21:01:15.156Z,4.88
2023-01-04T21:03:43.554Z,4.07
2023-01-04T21:06:13.704Z,3.97
2023-01-04T21:08:42.754Z,3.40
2023-01-04T21:11:12.977Z,4.45
2023-01-04T21:13:41.182Z,3.95
2023-01-04T21:16:09.758Z,4.40
2023-01-04T21:18:38.175Z,3.72
2023-01-04T21:21:07.151Z,2.90
2023-01-04T21:23:38.210Z,3.90
2023-01-04T21:26:07.780Z,2.78
2023-01-04T21:28:36.209Z,2.50
2023-01-04T21:31:10.404Z,3.17
2023-01-04T21:33:38.649Z,3.08
2023-01-04T21:36:11.188Z,3.80
2023-01-04T21:38:40.546Z,2.67
2023-01-04T21:41:09.203Z,3.60
2023-01-04T21:43:37.154Z,3.88
2023-01-04T21:46:06.569Z,3.70
2023-01-04T21:48:34.616Z,2.50
2023-01-04T21:51:02.826Z,3.00
2023-01-04T21:53:30.725Z,2.83
2023-01-04T21:56:00.621Z,3.70
2023-01-04T21:58:28.909Z,1.75
2023-01-04T22:00:56.989Z,3.05
2023-01-04T22:03:24.997Z,3.55
2023-01-04T22:05:53.015Z,3.67
2023-01-04T22:08:21.059Z,3.63
2023-01-04T22:10:54.273Z,3.40
2023-01-04T22:13:24.170Z,3.15
2023-01-04T22:15:52.263Z,3.67
2023-01-04T22:18:20.337Z,2.85
2023-01-04T22:20:48.425Z,2.95
2023-01-04T22:23:16.593Z,3.15
2023-01-04T22:25:44.601Z,2.97
2023-01-04T22:28:14.603Z,3.38
2023-01-04T22:30:43.982Z,2.30
2023-01-04T22:33:11.805Z,3.15
2023-01-04T22:35:40.357Z,2.20
2023-01-04T22:38:08.184Z,2.50
2023-01-04T22:40:36.010Z,2.55
2023-01-04T22:43:03.666Z,2.60
2023-01-04T22:45:31.365Z,3.38
2023-01-04T22:48:00.372Z,2.63
2023-01-04T22:50:28.079Z,2.20
2023-01-04T22:52:55.948Z,4.90
2023-01-04T22:55:23.701Z,1.92
2023-01-04T22:57:51.378Z,2.80
2023-01-04T23:00:19.118Z,3.17
2023-01-04T23:02:46.812Z,1.98
2023-01-04T23:05:15.879Z,2.25
2023-01-04T23:07:43.942Z,2.42
2023-01-04T23:10:11.670Z,3.50
2023-01-04T23:12:39.470Z,2.67
2023-01-04T23:15:08.583Z,2.80
2023-01-04T23:17:36.293Z,2.30
2023-01-04T23:20:10.121Z,2.92
2023-01-04T23:22:39.442Z,2.75
2023-01-04T23:25:08.441Z,2.50
2023-01-04T23:27:36.141Z,1.60
2023-01-04T23:30:03.862Z,2.35
2023-01-04T23:32:31.905Z,3.05
2023-01-04T23:34:59.593Z,3.08
2023-01-04T23:37:27.252Z,3.85
2023-01-04T23:39:56.237Z,3.03
2023-01-04T23:42:23.875Z,2.70
2023-01-04T23:44:51.536Z,1.90
2023-01-04T23:47:19.238Z,4.25
2023-01-04T23:49:47.278Z,2.00
2023-01-04T23:52:14.958Z,1.80
2023-01-04T23:54:42.625Z,2.95
2023-01-04T23:57:11.623Z,2.28
2023-01-04T23:59:39.285Z,5.72
